Time;durP1;ratioP1;P1;durP2;ratioP2;P2;SDS_P1;SDS_P2;PMS_P1;PMS_P2;Temp;Humidity;BMP_temperature;BMP_pressure;BME280_temperature;BME280_humidity;BME280_pressure;Samples;Min_cycle;Max_cycle;Signal;HPM_P1;HPM_P2
2023/08/19 00:00:26;;;;;;;25.50;22.60;;;18.60;99.90;;;;;;5072939;28;20024;-66
2023/08/19 00:02:52;;;;;;;22.00;19.83;;;18.50;99.90;;;;;;5072672;28;20465;-66
2023/08/19 00:05:18;;;;;;;24.88;20.52;;;18.50;99.90;;;;;;5074068;28;20037;-66
2023/08/19 00:07:44;;;;;;;22.88;20.45;;;18.50;99.90;;;;;;5072490;28;20524;-66
2023/08/19 00:10:10;;;;;;;21.98;19.83;;;18.50;99.90;;;;;;5073715;28;20125;-66
2023/08/19 00:12:35;;;;;;;23.63;21.13;;;18.40;99.90;;;;;;5074253;28;20029;-66
2023/08/19 00:15:01;;;;;;;25.98;21.20;;;18.40;99.90;;;;;;5073567;28;20025;-66
2023/08/19 00:17:27;;;;;;;23.60;21.13;;;18.40;99.90;;;;;;5074111;28;20103;-66
2023/08/19 00:19:52;;;;;;;22.60;20.40;;;18.40;99.90;;;;;;5073139;28;20027;-65
2023/08/19 00:22:18;;;;;;;22.63;20.30;;;18.40;99.90;;;;;;5072125;28;20043;-66
2023/08/19 00:24:44;;;;;;;23.83;21.33;;;18.40;99.90;;;;;;5073562;28;20036;-66
2023/08/19 00:27:10;;;;;;;24.20;21.65;;;18.30;99.90;;;;;;5071888;28;20035;-66
2023/08/19 00:29:35;;;;;;;23.40;21.00;;;18.30;99.90;;;;;;5073522;28;20029;-66
2023/08/19 00:32:02;;;;;;;23.08;20.73;;;18.30;99.90;;;;;;5072255;28;20081;-66
2023/08/19 00:34:27;;;;;;;23.30;21.02;;;18.20;99.90;;;;;;5073366;28;20024;-66
2023/08/19 00:36:54;;;;;;;22.40;20.27;;;18.20;99.90;;;;;;5072083;28;20048;-66
2023/08/19 00:39:19;;;;;;;22.80;20.35;;;18.20;99.90;;;;;;5073315;28;20481;-66
2023/08/19 00:41:45;;;;;;;24.98;20.60;;;18.20;99.90;;;;;;5073558;28;20135;-66
2023/08/19 00:44:11;;;;;;;23.00;20.70;;;18.20;99.90;;;;;;5073489;28;20078;-66
2023/08/19 00:46:37;;;;;;;23.20;20.73;;;18.10;99.90;;;;;;5072965;28;20090;-67
2023/08/19 00:49:04;;;;;;;23.42;21.02;;;18.20;99.90;;;;;;5082356;28;20020;-67
2023/08/19 00:51:30;;;;;;;23.48;21.10;;;18.20;99.90;;;;;;5080704;28;20109;-66
2023/08/19 00:53:56;;;;;;;24.67;21.20;;;18.20;99.90;;;;;;5081082;28;20047;-66
2023/08/19 00:56:22;;;;;;;23.48;21.02;;;18.20;99.90;;;;;;5074671;28;20025;-66
2023/08/19 00:58:48;;;;;;;23.60;21.15;;;18.10;99.90;;;;;;5073665;28;20028;-66
2023/08/19 01:01:14;;;;;;;23.42;20.63;;;18.10;99.90;;;;;;5074021;28;20040;-66
2023/08/19 01:03:39;;;;;;;24.52;22.08;;;18.10;99.90;;;;;;5072490;28;20025;-66
2023/08/19 01:06:17;;;;;;;25.67;21.95;;;18.00;99.90;;;;;;5072995;28;20493;-66
2023/08/19 01:08:49;;;;;;;23.52;21.00;;;18.00;99.90;;;;;;5074004;28;20029;-65
2023/08/19 01:11:34;;;;;;;23.83;21.38;;;18.10;99.90;;;;;;5076558;28;20482;-65
2023/08/19 01:14:17;;;;;;;23.13;20.73;;;18.00;99.90;;;;;;5076853;28;20020;-66
2023/08/19 01:16:46;;;;;;;23.13;20.70;;;18.00;99.90;;;;;;5076786;28;20036;-66
2023/08/19 01:19:23;;;;;;;24.98;21.80;;;17.90;99.90;;;;;;5076289;28;20024;-65
2023/08/19 01:21:52;;;;;;;24.17;21.60;;;17.90;99.90;;;;;;5076560;28;20043;-66
2023/08/19 01:24:22;;;;;;;27.20;21.98;;;17.90;99.90;;;;;;5076230;28;20358;-66
2023/08/19 01:26:47;;;;;;;24.10;21.73;;;17.90;99.90;;;;;;5076108;28;20036;-65
2023/08/19 01:29:13;;;;;;;24.17;21.42;;;17.90;99.90;;;;;;5075217;28;20024;-66
2023/08/19 01:31:38;;;;;;;24.08;21.17;;;17.90;99.90;;;;;;5076231;28;20036;-66
2023/08/19 01:34:04;;;;;;;25.33;22.63;;;17.90;99.90;;;;;;5075065;28;20025;-66
2023/08/19 01:36:38;;;;;;;24.33;21.58;;;17.90;99.90;;;;;;5076101;28;20052;-66
2023/08/19 01:39:08;;;;;;;23.35;21.00;;;17.80;99.90;;;;;;5075103;28;20036;-66
2023/08/19 01:41:34;;;;;;;23.45;20.10;;;17.80;99.90;;;;;;5076027;28;20071;-65
2023/08/19 01:44:02;;;;;;;24.08;21.73;;;17.80;99.90;;;;;;5076283;28;20078;-66
2023/08/19 01:46:28;;;;;;;24.42;20.95;;;17.80;99.90;;;;;;5076092;28;20111;-65
2023/08/19 01:48:54;;;;;;;23.73;21.38;;;17.80;99.90;;;;;;5076313;28;20060;-66
2023/08/19 01:51:21;;;;;;;24.85;21.65;;;17.80;99.90;;;;;;5075783;28;20484;-65
2023/08/19 01:53:47;;;;;;;24.33;21.80;;;17.80;99.90;;;;;;5076047;28;20029;-65
2023/08/19 01:56:12;;;;;;;24.60;21.15;;;17.70;99.90;;;;;;5074582;28;20074;-66
2023/08/19 01:58:38;;;;;;;23.73;21.33;;;17.70;99.90;;;;;;5075873;28;20025;-66
2023/08/19 02:01:04;;;;;;;23.35;20.95;;;17.80;99.90;;;;;;5075806;28;20070;-65
2023/08/19 02:03:30;;;;;;;24.42;21.92;;;17.70;99.90;;;;;;5075747;28;20043;-65
2023/08/19 02:05:55;;;;;;;23.40;20.58;;;17.70;99.90;;;;;;5074606;28;20457;-65
2023/08/19 02:08:21;;;;;;;24.20;21.60;;;17.70;99.90;;;;;;5074533;28;20142;-65
2023/08/19 02:10:47;;;;;;;24.52;20.27;;;17.70;99.90;;;;;;5075922;28;20453;-66
2023/08/19 02:13:12;;;;;;;23.58;21.17;;;17.70;99.90;;;;;;5075738;28;20032;-65
2023/08/19 02:15:38;;;;;;;24.08;21.58;;;17.60;99.90;;;;;;5075585;28;20135;-65
2023/08/19 02:18:04;;;;;;;23.98;20.35;;;17.60;99.90;;;;;;5073991;28;20037;-65
2023/08/19 02:20:30;;;;;;;25.40;22.73;;;17.60;99.90;;;;;;5075319;28;20048;-65
2023/08/19 02:22:59;;;;;;;24.30;21.70;;;17.60;99.90;;;;;;5075024;28;20083;-65
2023/08/19 02:25:24;;;;;;;;;;;17.60;99.90;;;;;;5075888;28;20048;-66
2023/08/19 02:27:50;;;;;;;23.48;21.00;;;17.60;99.90;;;;;;5075158;28;20341;-65
2023/08/19 02:30:16;;;;;;;25.13;22.45;;;17.50;99.90;;;;;;5075816;28;20438;-65
2023/08/19 02:32:41;;;;;;;26.05;21.60;;;17.50;99.90;;;;;;5075250;28;20055;-65
2023/08/19 02:35:08;;;;;;;23.50;21.10;;;17.50;99.90;;;;;;5073870;28;20115;-66
2023/08/19 02:37:33;;;;;;;24.42;21.10;;;17.50;99.90;;;;;;5075201;28;20455;-65
2023/08/19 02:39:59;;;;;;;23.60;21.17;;;17.50;99.90;;;;;;5075099;28;20028;-65
2023/08/19 02:42:25;;;;;;;24.23;21.88;;;17.40;99.90;;;;;;5075096;28;20029;-65
2023/08/19 02:44:50;;;;;;;24.13;20.85;;;17.40;99.90;;;;;;5075150;28;20096;-65
2023/08/19 02:47:16;;;;;;;26.80;21.20;;;17.40;99.90;;;;;;5075054;28;20350;-65
2023/08/19 02:49:43;;;;;;;23.13;20.58;;;17.40;99.90;;;;;;5074883;28;20043;-65
2023/08/19 02:52:09;;;;;;;25.20;22.58;;;17.40;99.90;;;;;;5074907;28;20029;-65
2023/08/19 02:54:34;;;;;;;25.05;20.98;;;17.40;99.90;;;;;;5074473;28;20401;-65
2023/08/19 02:57:00;;;;;;;25.98;20.98;;;17.40;99.90;;;;;;5074864;28;20024;-65
2023/08/19 02:59:26;;;;;;;23.95;21.27;;;17.40;99.90;;;;;;5074687;28;20032;-65
2023/08/19 03:01:51;;;;;;;23.42;21.15;;;17.30;99.90;;;;;;5074835;28;20055;-65
2023/08/19 03:04:17;;;;;;;25.23;20.52;;;17.30;99.90;;;;;;5074607;28;20028;-65
2023/08/19 03:06:43;;;;;;;24.38;21.23;;;17.30;99.90;;;;;;5074681;28;20098;-65
2023/08/19 03:09:09;;;;;;;22.73;20.25;;;17.20;99.90;;;;;;5074484;28;20036;-65
2023/08/19 03:11:35;;;;;;;23.38;20.92;;;17.20;99.90;;;;;;5074478;28;20127;-66
2023/08/19 03:14:01;;;;;;;27.10;21.20;;;17.20;99.90;;;;;;5074390;28;20103;-65
2023/08/19 03:16:27;;;;;;;23.10;20.63;;;17.20;99.90;;;;;;5074353;28;20056;-65
2023/08/19 03:18:53;;;;;;;24.77;21.40;;;17.10;99.90;;;;;;5074336;28;20052;-65
2023/08/19 03:21:19;;;;;;;24.25;21.65;;;17.10;99.90;;;;;;5072959;28;20043;-65
2023/08/19 03:23:44;;;;;;;24.63;22.13;;;17.10;99.90;;;;;;5074142;28;20024;-66
2023/08/19 03:26:10;;;;;;;27.13;22.60;;;17.10;99.90;;;;;;5074452;28;20342;-65
2023/08/19 03:28:36;;;;;;;29.30;22.38;;;17.10;99.90;;;;;;5074381;28;20028;-68
2023/08/19 03:31:11;;;;;;;25.08;21.70;;;17.10;99.90;;;;;;5072390;28;20032;-66
2023/08/19 03:33:38;;;;;;;23.80;21.48;;;17.10;99.90;;;;;;5074072;28;20035;-66
2023/08/19 03:36:04;;;;;;;26.60;22.73;;;17.20;99.90;;;;;;5072343;28;20045;-65
2023/08/19 03:38:30;;;;;;;23.85;21.45;;;17.20;99.90;;;;;;5073732;28;20100;-66
2023/08/19 03:40:56;;;;;;;23.33;21.00;;;17.20;99.90;;;;;;5073970;28;20535;-65
2023/08/19 03:43:21;;;;;;;23.80;21.35;;;17.20;99.90;;;;;;5074186;28;20028;-65
2023/08/19 03:45:47;;;;;;;24.02;21.50;;;17.20;99.90;;;;;;5073892;28;20154;-66
2023/08/19 03:48:13;;;;;;;23.10;20.80;;;17.20;99.90;;;;;;5074108;28;20024;-66
2023/08/19 03:50:39;;;;;;;24.10;21.40;;;17.20;99.90;;;;;;5073693;28;20450;-58
2023/08/19 03:53:05;;;;;;;24.98;22.00;;;17.20;99.90;;;;;;5073650;28;20028;-57
2023/08/19 03:55:32;;;;;;;23.95;21.45;;;17.20;99.90;;;;;;5073666;28;20035;-58
2023/08/19 03:57:57;;;;;;;27.63;21.23;;;17.20;99.90;;;;;;5073522;28;20094;-57
2023/08/19 04:00:23;;;;;;;25.10;21.55;;;17.20;99.90;;;;;;5073543;28;20107;-57
2023/08/19 04:02:49;;;;;;;25.23;22.63;;;17.20;99.90;;;;;;5073463;28;20036;-58
2023/08/19 04:05:15;;;;;;;24.95;22.55;;;17.20;99.90;;;;;;5073665;28;20021;-58
2023/08/19 04:07:41;;;;;;;25.42;22.73;;;17.10;99.90;;;;;;5073494;28;20033;-58
2023/08/19 04:10:08;;;;;;;25.75;22.52;;;17.20;99.90;;;;;;5072804;28;20078;-58
2023/08/19 04:12:34;;;;;;;25.55;21.05;;;17.30;99.90;;;;;;5072838;28;20033;-59
2023/08/19 04:15:00;;;;;;;23.52;20.80;;;17.30;99.90;;;;;;5074288;28;20040;-58
2023/08/19 04:17:26;;;;;;;22.42;20.05;;;17.30;99.90;;;;;;5072444;28;20028;-57
2023/08/19 04:19:51;;;;;;;22.95;20.55;;;17.30;99.90;;;;;;5073281;28;20377;-58
2023/08/19 04:22:18;;;;;;;21.13;19.02;;;17.30;99.90;;;;;;5071913;28;20032;-57
2023/08/19 04:24:50;;;;;;;20.88;18.67;;;17.30;99.90;;;;;;5073666;28;20551;-57
2023/08/19 04:27:16;;;;;;;20.90;18.75;;;17.40;99.90;;;;;;5073293;28;20033;-57
2023/08/19 04:29:41;;;;;;;21.77;19.67;;;17.40;99.90;;;;;;5073264;28;20031;-58
2023/08/19 04:32:07;;;;;;;21.35;19.23;;;17.50;99.90;;;;;;5072008;28;20461;-58
2023/08/19 04:34:33;;;;;;;22.85;18.67;;;17.50;99.90;;;;;;5073267;28;20060;-57
2023/08/19 04:36:58;;;;;;;21.02;18.92;;;17.50;99.90;;;;;;5072806;28;20053;-58
2023/08/19 04:39:24;;;;;;;21.85;18.75;;;17.50;99.90;;;;;;5073288;28;20028;-58
2023/08/19 04:41:50;;;;;;;23.45;18.02;;;17.60;99.90;;;;;;5071852;28;20086;-58
2023/08/19 04:44:16;;;;;;;20.10;18.00;;;17.60;99.90;;;;;;5076052;28;20108;-58
2023/08/19 04:46:42;;;;;;;19.65;17.75;;;17.70;99.90;;;;;;5077101;28;20024;-58
2023/08/19 04:49:08;;;;;;;19.13;17.25;;;17.80;99.90;;;;;;5077120;28;20040;-58
2023/08/19 04:51:35;;;;;;;20.52;18.33;;;17.80;99.90;;;;;;5075789;28;20488;-58
2023/08/19 04:54:00;;;;;;;20.42;18.23;;;17.80;99.90;;;;;;5077405;28;20077;-58
2023/08/19 04:56:26;;;;;;;22.92;17.23;;;17.90;99.90;;;;;;5077035;28;20029;-58
2023/08/19 04:58:52;;;;;;;19.65;17.52;;;17.90;99.90;;;;;;5076585;28;20032;-59
2023/08/19 05:01:18;;;;;;;18.67;16.88;;;18.00;99.90;;;;;;5075478;28;20127;-58
2023/08/19 05:03:43;;;;;;;18.42;16.52;;;18.00;99.90;;;;;;5077087;28;20024;-58
2023/08/19 05:06:09;;;;;;;19.13;16.88;;;18.10;99.90;;;;;;5075444;28;20453;-58
2023/08/19 05:08:35;;;;;;;18.27;16.38;;;18.10;99.90;;;;;;5077102;28;20028;-58
2023/08/19 05:11:01;;;;;;;17.90;16.13;;;18.10;99.90;;;;;;5077115;28;20027;-58
2023/08/19 05:13:26;;;;;;;18.98;16.48;;;18.20;99.90;;;;;;5059046;28;20436;-58
2023/08/19 05:15:52;;;;;;;16.25;14.50;;;18.20;99.90;;;;;;5076914;28;20055;-58
2023/08/19 05:18:17;;;;;;;18.10;16.15;;;18.30;99.90;;;;;;5076567;28;20024;-58
2023/08/19 05:20:43;;;;;;;16.75;14.55;;;18.40;99.90;;;;;;5076942;28;20024;-58
2023/08/19 05:23:09;;;;;;;18.27;16.40;;;18.50;99.90;;;;;;5076457;28;20041;-58
2023/08/19 05:25:35;;;;;;;17.27;15.10;;;18.50;99.90;;;;;;5076552;28;20355;-59
2023/08/19 05:28:00;;;;;;;16.52;14.80;;;18.60;99.90;;;;;;5076422;28;20094;-58
2023/08/19 05:30:26;;;;;;;17.27;15.57;;;18.60;99.90;;;;;;5075619;28;20025;-58
2023/08/19 05:32:52;;;;;;;18.08;15.25;;;18.70;99.90;;;;;;5076259;28;20032;-59
2023/08/19 05:35:17;;;;;;;15.77;14.25;;;18.80;99.90;;;;;;5076026;28;20033;-59
2023/08/19 05:37:43;;;;;;;17.85;13.90;;;18.90;99.90;;;;;;5076500;28;20401;-58
2023/08/19 05:40:09;;;;;;;16.60;13.60;;;19.00;99.90;;;;;;5075987;28;20516;-58
2023/08/19 05:42:34;;;;;;;16.60;14.10;;;19.10;99.90;;;;;;5075595;28;20090;-58
2023/08/19 05:45:00;;;;;;;16.15;14.30;;;19.20;99.90;;;;;;5076332;28;20054;-59
2023/08/19 05:47:26;;;;;;;15.15;13.60;;;19.40;99.90;;;;;;5075865;28;20048;-58
2023/08/19 05:49:52;;;;;;;15.48;13.90;;;19.40;99.90;;;;;;5075720;28;20029;-58
2023/08/19 05:52:17;;;;;;;14.43;13.13;;;19.60;99.90;;;;;;5075988;28;20116;-59
2023/08/19 05:54:43;;;;;;;15.80;13.38;;;19.70;99.90;;;;;;5075382;28;20056;-59
2023/08/19 05:57:09;;;;;;;13.80;12.60;;;19.70;99.90;;;;;;5074784;28;20033;-58
2023/08/19 05:59:34;;;;;;;15.40;12.82;;;19.80;99.90;;;;;;5075604;28;20100;-58
2023/08/19 06:02:00;;;;;;;14.52;12.43;;;19.90;99.90;;;;;;5075927;28;20075;-59
2023/08/19 06:04:25;;;;;;;13.35;12.05;;;20.10;99.90;;;;;;5075777;28;20158;-59
2023/08/19 06:06:51;;;;;;;12.98;11.43;;;20.30;99.90;;;;;;5075914;28;20115;-59
2023/08/19 06:09:17;;;;;;;12.55;11.35;;;20.60;99.90;;;;;;5075941;28;20028;-58
2023/08/19 06:11:51;;;;;;;13.45;11.68;;;20.90;99.90;;;;;;5074857;28;20032;-59
2023/08/19 06:14:17;;;;;;;11.48;10.18;;;21.30;99.90;;;;;;5075821;28;20082;-58
2023/08/19 06:16:44;;;;;;;11.93;10.82;;;21.70;99.90;;;;;;5075608;28;20073;-59
2023/08/19 06:19:10;;;;;;;11.40;10.20;;;22.00;99.90;;;;;;5075515;28;20452;-59
2023/08/19 06:21:36;;;;;;;10.50;9.60;;;22.30;99.90;;;;;;5074454;28;20493;-58
2023/08/19 06:24:01;;;;;;;10.93;9.93;;;22.60;99.90;;;;;;5075479;28;20028;-59
2023/08/19 06:26:27;;;;;;;11.20;9.98;;;22.90;99.90;;;;;;5074839;28;20043;-58
2023/08/19 06:28:53;;;;;;;10.00;9.07;;;23.30;99.90;;;;;;5074848;28;20522;-58
2023/08/19 06:31:19;;;;;;;11.35;9.70;;;23.60;99.90;;;;;;5074741;28;20059;-59
2023/08/19 06:33:45;;;;;;;10.18;9.38;;;23.90;99.90;;;;;;5074881;28;20104;-58
2023/08/19 06:36:14;;;;;;;10.02;8.80;;;24.20;99.90;;;;;;5073956;28;20128;-59
2023/08/19 06:38:45;;;;;;;9.82;8.82;;;24.50;99.90;;;;;;5075160;28;20051;-73
2023/08/19 06:41:11;;;;;;;9.18;8.35;;;25.00;99.90;;;;;;5078568;28;20496;-67
2023/08/19 06:43:38;;;;;;;9.80;8.85;;;25.50;99.90;;;;;;5078709;28;20032;-68
2023/08/19 06:46:05;;;;;;;10.02;9.05;;;25.70;99.90;;;;;;5077432;28;20051;-68
2023/08/19 06:48:32;;;;;;;9.75;8.77;;;25.80;99.90;;;;;;5077539;28;20016;-67
2023/08/19 06:50:58;;;;;;;11.45;9.52;;;26.10;99.90;;;;;;5078403;28;20103;-68
2023/08/19 06:53:24;;;;;;;10.68;9.57;;;26.30;99.90;;;;;;5076472;28;20036;-68
2023/08/19 06:56:04;;;;;;;10.32;9.27;;;26.60;99.90;;;;;;5075867;28;20097;-67
2023/08/19 06:58:35;;;;;;;12.00;10.88;;;26.70;99.90;;;;;;5075789;28;20025;-67
2023/08/19 07:01:04;;;;;;;12.43;9.85;;;27.00;99.90;;;;;;5075080;28;20470;-67
2023/08/19 07:03:34;;;;;;;11.02;9.93;;;27.30;99.90;;;;;;5076279;28;20103;-67
2023/08/19 07:06:01;;;;;;;11.80;10.70;;;27.60;99.90;;;;;;5074550;28;20525;-69
2023/08/19 07:08:30;;;;;;;11.85;10.65;;;27.80;99.90;;;;;;5074529;28;20043;-68
2023/08/19 07:10:58;;;;;;;11.82;10.25;;;28.30;99.90;;;;;;5056195;28;20393;-67
2023/08/19 07:13:23;;;;;;;10.18;9.27;;;28.60;99.90;;;;;;5057302;28;20112;-69
2023/08/19 07:15:57;;;;;;;12.30;9.00;;;28.90;99.90;;;;;;5055120;28;20068;-70
2023/08/19 07:18:27;;;;;;;11.18;8.77;;;29.20;99.90;;;;;;5055524;28;20490;-69
2023/08/19 07:20:56;;;;;;;10.55;9.55;;;29.50;99.90;;;;;;5055795;28;20029;-75
2023/08/19 07:23:23;;;;;;;9.88;9.00;;;29.80;99.30;;;;;;5055075;28;20116;-77
2023/08/19 07:25:50;;;;;;;9.52;8.52;;;29.70;98.50;;;;;;5070000;28;20039;-76
2023/08/19 07:28:17;;;;;;;10.18;9.18;;;29.80;98.20;;;;;;5054548;28;20033;-76
2023/08/19 07:30:43;;;;;;;10.75;7.57;;;30.50;96.70;;;;;;5069894;28;20053;-75
2023/08/19 07:33:11;;;;;;;8.25;7.45;;;30.50;96.70;;;;;;5054204;28;20112;-77
2023/08/19 07:35:38;;;;;;;9.45;8.18;;;31.30;95.30;;;;;;5070998;28;20554;-77
2023/08/19 07:38:05;;;;;;;12.63;8.02;;;31.80;93.70;;;;;;5056157;28;20029;-76
2023/08/19 07:40:30;;;;;;;10.60;8.13;;;31.00;93.90;;;;;;5053840;28;20415;-78
2023/08/19 07:42:56;;;;;;;9.20;8.20;;;30.70;94.30;;;;;;5053978;28;20111;-77
2023/08/19 07:45:22;;;;;;;11.48;9.00;;;31.00;93.30;;;;;;5054028;28;20033;-76
2023/08/19 07:47:47;;;;;;;11.85;8.25;;;30.40;93.90;;;;;;5069410;28;20029;-76
2023/08/19 07:50:13;;;;;;;9.80;8.52;;;30.40;94.30;;;;;;5057399;28;20071;-77
2023/08/19 07:52:38;;;;;;;8.60;7.70;;;30.50;93.80;;;;;;5062643;28;20492;-76
2023/08/19 07:55:04;;;;;;;8.80;7.95;;;30.70;94.10;;;;;;5077285;28;20032;-79
2023/08/19 07:57:30;;;;;;;10.30;8.52;;;31.80;92.30;;;;;;5062565;28;20025;-76
2023/08/19 07:59:55;;;;;;;8.27;7.60;;;32.30;90.60;;;;;;5059263;28;20044;-76
2023/08/19 08:02:21;;;;;;;8.82;7.90;;;32.60;91.10;;;;;;5071219;28;20033;-75
2023/08/19 08:04:47;;;;;;;8.15;7.20;;;32.60;90.30;;;;;;5054618;28;20021;-76
2023/08/19 08:07:13;;;;;;;7.63;6.63;;;33.00;89.40;;;;;;5052034;28;20106;-76
2023/08/19 08:09:38;;;;;;;8.40;7.20;;;33.80;87.90;;;;;;5068784;28;20029;-75
2023/08/19 08:12:04;;;;;;;7.60;6.90;;;34.10;85.00;;;;;;5053707;28;20128;-75
2023/08/19 08:14:30;;;;;;;7.40;6.70;;;34.30;82.30;;;;;;5052268;28;20041;-75
2023/08/19 08:16:56;;;;;;;7.95;7.25;;;34.30;81.50;;;;;;5052101;28;20477;-75
2023/08/19 08:19:28;;;;;;;7.10;6.50;;;34.30;80.30;;;;;;5052231;28;20021;-75
2023/08/19 08:21:54;;;;;;;7.80;6.95;;;34.40;78.50;;;;;;5053469;28;20411;-75
2023/08/19 08:24:20;;;;;;;7.18;6.57;;;34.50;77.30;;;;;;5053885;28;20037;-74
2023/08/19 08:26:46;;;;;;;7.78;6.68;;;34.80;76.20;;;;;;5068925;28;20040;-75
2023/08/19 08:29:12;;;;;;;7.45;6.75;;;34.80;75.40;;;;;;5069017;28;20386;-74
2023/08/19 08:31:38;;;;;;;11.93;6.68;;;34.70;75.50;;;;;;5053102;28;20094;-75
2023/08/19 08:34:04;;;;;;;7.25;6.63;;;34.90;75.20;;;;;;5068631;28;20047;-75
2023/08/19 08:36:29;;;;;;;7.90;6.18;;;35.30;72.60;;;;;;5052830;28;20053;-76
2023/08/19 08:38:55;;;;;;;7.32;6.63;;;35.00;73.20;;;;;;5053059;28;20025;-76
2023/08/19 08:41:22;;;;;;;6.80;6.30;;;35.30;71.30;;;;;;5051742;28;20055;-76
2023/08/19 08:43:48;;;;;;;7.90;6.15;;;35.30;72.20;;;;;;5051803;28;20524;-76
2023/08/19 08:46:16;;;;;;;6.72;6.15;;;35.50;71.10;;;;;;5068649;28;20033;-75
2023/08/19 08:48:43;;;;;;;6.90;6.40;;;35.30;69.90;;;;;;5053588;28;20412;-76
2023/08/19 08:51:09;;;;;;;6.78;5.97;;;35.60;68.10;;;;;;5053380;28;20112;-76
2023/08/19 08:53:36;;;;;;;7.35;6.75;;;35.90;67.50;;;;;;5053315;28;20032;-75
2023/08/19 08:56:02;;;;;;;7.90;5.80;;;36.00;67.30;;;;;;5068519;28;20025;-76
2023/08/19 08:58:28;;;;;;;7.18;6.45;;;36.00;67.10;;;;;;5053301;28;20029;-74
2023/08/19 09:00:54;;;;;;;6.00;5.47;;;36.20;66.50;;;;;;5053215;28;20032;-74
2023/08/19 09:03:25;;;;;;;6.05;5.47;;;36.20;64.80;;;;;;5068585;28;20043;-74
2023/08/19 09:05:54;;;;;;;6.55;5.70;;;36.00;64.30;;;;;;5068532;28;20463;-75
2023/08/19 09:08:27;;;;;;;6.25;5.63;;;36.40;63.80;;;;;;5053128;28;20103;-74
2023/08/19 09:10:53;;;;;;;9.40;5.75;;;36.90;63.00;;;;;;5053511;28;20075;-74
2023/08/19 09:13:23;;;;;;;6.15;5.63;;;37.10;62.40;;;;;;5053360;28;20416;-75
2023/08/19 09:15:49;;;;;;;6.45;5.95;;;37.00;61.60;;;;;;5051934;28;20060;-74
2023/08/19 09:18:17;;;;;;;7.63;6.30;;;36.90;61.90;;;;;;5053343;28;20422;-74
2023/08/19 09:20:44;;;;;;;7.53;6.30;;;36.30;61.80;;;;;;5052801;28;20025;-74
2023/08/19 09:23:10;;;;;;;6.93;6.32;;;36.30;61.80;;;;;;5052896;28;20048;-74
2023/08/19 09:25:39;;;;;;;6.95;5.70;;;35.70;62.80;;;;;;5052634;28;20452;-74
2023/08/19 09:28:05;;;;;;;8.68;5.35;;;35.70;63.80;;;;;;5051660;28;20120;-75
2023/08/19 09:30:34;;;;;;;7.97;4.85;;;36.00;62.90;;;;;;5055733;28;20075;-75
2023/08/19 09:33:02;;;;;;;5.13;4.72;;;36.70;61.60;;;;;;5056662;28;20029;-75
2023/08/19 09:35:38;;;;;;;6.22;5.63;;;37.20;60.50;;;;;;5071696;28;20494;-75
2023/08/19 09:38:04;;;;;;;5.45;5.00;;;37.90;59.40;;;;;;5072017;28;20523;-74
2023/08/19 09:40:30;;;;;;;5.70;5.03;;;38.20;58.10;;;;;;5056666;28;20100;-75
2023/08/19 09:43:00;;;;;;;6.03;5.35;;;38.50;57.10;;;;;;5056378;28;20462;-76
2023/08/19 09:45:27;;;;;;;5.75;5.28;;;38.50;57.20;;;;;;5071475;28;20025;-76
2023/08/19 09:47:53;;;;;;;5.65;4.70;;;38.60;56.30;;;;;;5071655;28;20021;-76
2023/08/19 09:50:22;;;;;;;5.13;4.72;;;38.20;56.60;;;;;;5056293;28;20170;-76
2023/08/19 09:52:59;;;;;;;5.32;4.82;;;38.20;56.30;;;;;;5056128;28;20106;-76
2023/08/19 09:55:26;;;;;;;5.78;5.20;;;37.90;55.90;;;;;;5055990;28;20056;-78
2023/08/19 09:57:52;;;;;;;5.83;5.43;;;36.90;56.80;;;;;;5056121;28;20486;-78
2023/08/19 10:00:18;;;;;;;5.85;5.00;;;36.90;57.30;;;;;;5056435;28;20460;-78
2023/08/19 10:02:44;;;;;;;5.45;4.85;;;36.90;57.10;;;;;;5056165;28;20144;-78
2023/08/19 10:05:09;;;;;;;5.72;5.30;;;36.90;57.20;;;;;;5057723;28;20033;-78
2023/08/19 10:07:40;;;;;;;6.00;5.20;;;37.30;57.10;;;;;;5054866;28;20025;-78
2023/08/19 10:10:08;;;;;;;6.10;5.47;;;38.00;56.50;;;;;;5055525;28;20363;-76
2023/08/19 10:12:38;;;;;;;5.72;5.25;;;37.70;56.80;;;;;;5054561;28;20036;-76
2023/08/19 10:15:07;;;;;;;5.80;5.25;;;37.20;56.80;;;;;;5055822;28;20480;-77
2023/08/19 10:17:33;;;;;;;;;;;36.80;56.20;;;;;;5055702;28;20478;-76
2023/08/19 10:20:06;;;;;;;8.55;5.47;;;36.80;56.70;;;;;;5055594;28;19912;-75
2023/08/19 10:22:34;;;;;;;5.65;5.25;;;37.40;56.40;;;;;;5054024;28;20485;-76
2023/08/19 10:25:01;;;;;;;5.65;5.05;;;37.60;56.60;;;;;;5055763;28;20033;-77
2023/08/19 10:27:27;;;;;;;5.43;4.95;;;37.60;55.80;;;;;;5055476;28;20104;-76
2023/08/19 10:29:56;;;;;;;5.40;5.00;;;37.80;55.80;;;;;;5055663;28;20063;-76
2023/08/19 10:32:26;;;;;;;5.68;5.28;;;38.30;55.30;;;;;;5055312;28;20374;-76
2023/08/19 10:35:03;;;;;;;8.38;6.28;;;36.60;56.70;;;;;;5055240;28;20021;-75
2023/08/19 10:37:29;;;;;;;5.80;5.25;;;34.60;59.00;;;;;;5070438;28;20044;-75
2023/08/19 10:40:22;;;;;;;6.20;5.60;;;35.20;60.30;;;;;;5070779;28;20033;-77
2023/08/19 10:43:00;;;;;;;7.95;5.38;;;36.30;58.60;;;;;;5045945;28;20367;-77
2023/08/19 10:45:33;;;;;;;7.72;5.13;;;36.80;57.80;;;;;;5070755;28;20032;-76
2023/08/19 10:47:59;;;;;;;5.40;4.93;;;38.00;56.00;;;;;;5053586;28;20116;-77
2023/08/19 10:50:25;;;;;;;6.57;4.78;;;38.80;53.70;;;;;;5054747;28;20099;-77
2023/08/19 10:53:01;;;;;;;5.95;5.10;;;39.50;52.70;;;;;;5054643;28;20108;-77
2023/08/19 10:55:27;;;;;;;5.35;4.85;;;39.60;52.70;;;;;;5054921;28;20104;-77
2023/08/19 10:57:56;;;;;;;6.53;4.80;;;38.70;53.50;;;;;;5055114;28;20151;-77
2023/08/19 11:00:26;;;;;;;6.25;5.38;;;37.90;54.80;;;;;;5054902;28;20459;-77
2023/08/19 11:02:51;;;;;;;7.88;5.45;;;36.90;54.60;;;;;;5054639;28;20114;-76
2023/08/19 11:05:26;;;;;;;6.00;5.50;;;36.20;56.50;;;;;;5054578;28;20059;-76
2023/08/19 11:07:52;;;;;;;6.55;5.25;;;36.00;56.90;;;;;;5053064;28;20025;-76
2023/08/19 11:10:19;;;;;;;5.80;5.30;;;36.60;57.20;;;;;;5054487;28;20032;-76
2023/08/19 11:12:45;;;;;;;6.40;5.13;;;37.60;55.20;;;;;;5053997;28;20036;-78
2023/08/19 11:15:11;;;;;;;6.15;4.97;;;37.90;53.40;;;;;;5054225;28;20549;-76
2023/08/19 11:17:37;;;;;;;5.82;5.32;;;37.70;53.30;;;;;;5054207;28;20104;-76
2023/08/19 11:20:10;;;;;;;6.88;5.30;;;38.20;53.90;;;;;;5053860;28;20056;-76
2023/08/19 11:22:46;;;;;;;5.20;4.80;;;38.90;53.20;;;;;;5053800;28;20037;-76
2023/08/19 11:25:12;;;;;;;9.43;5.25;;;38.80;52.20;;;;;;5069158;28;20426;-76
2023/08/19 11:27:39;;;;;;;6.43;5.43;;;39.00;52.10;;;;;;5052576;28;20025;-75
2023/08/19 11:30:08;;;;;;;5.35;4.85;;;38.40;51.40;;;;;;5069538;28;20119;-75
2023/08/19 11:32:35;;;;;;;5.47;5.07;;;37.80;52.40;;;;;;5052640;28;20035;-76
2023/08/19 11:35:01;;;;;;;6.57;5.60;;;38.00;52.20;;;;;;5069181;28;20025;-76
2023/08/19 11:37:29;;;;;;;6.53;5.60;;;36.20;53.80;;;;;;5053463;28;20127;-75
2023/08/19 11:39:55;;;;;;;6.65;5.55;;;34.70;56.40;;;;;;5069314;28;20178;-76
2023/08/19 11:42:21;;;;;;;6.65;5.60;;;33.90;58.60;;;;;;5053721;28;20381;-76
2023/08/19 11:44:46;;;;;;;6.15;5.65;;;33.80;59.20;;;;;;5053506;28;20154;-75
2023/08/19 11:47:14;;;;;;;7.13;5.97;;;34.00;57.80;;;;;;5053604;28;20512;-75
2023/08/19 11:49:43;;;;;;;7.00;5.53;;;35.20;56.60;;;;;;5052349;28;20068;-76
2023/08/19 11:52:09;;;;;;;5.72;5.15;;;36.60;55.40;;;;;;5053031;28;20025;-76
2023/08/19 11:54:35;;;;;;;6.18;5.57;;;37.80;53.20;;;;;;5052497;28;20544;-77
2023/08/19 11:57:02;;;;;;;8.13;5.38;;;38.50;52.90;;;;;;5052539;28;20036;-76
2023/08/19 11:59:32;;;;;;;5.68;5.20;;;38.00;53.70;;;;;;5053635;28;20052;-77
2023/08/19 12:02:10;;;;;;;6.30;5.13;;;38.60;52.70;;;;;;5053539;28;20029;-75
2023/08/19 12:04:35;;;;;;;5.55;5.15;;;38.40;52.50;;;;;;5053530;28;20374;-75
2023/08/19 12:07:08;;;;;;;5.32;4.85;;;38.40;51.60;;;;;;5053878;28;20037;-76
2023/08/19 12:09:36;;;;;;;5.38;4.88;;;39.20;50.90;;;;;;5053686;28;20020;-75
2023/08/19 12:12:11;;;;;;;;;;;39.60;49.90;;;;;;5053623;28;20029;-77
2023/08/19 12:14:39;;;;;;;5.35;5.05;;;39.60;50.10;;;;;;5052534;28;19905;-76
2023/08/19 12:17:09;;;;;;;9.10;6.28;;;39.50;48.80;;;;;;5052834;28;20355;-76
2023/08/19 12:19:37;;;;;;;6.50;5.97;;;38.10;50.40;;;;;;5062438;28;20029;-76
2023/08/19 12:22:03;;;;;;;6.15;5.60;;;37.00;54.10;;;;;;5063090;28;20040;-76
2023/08/19 12:24:29;;;;;;;6.82;6.28;;;36.00;54.50;;;;;;5060565;28;20021;-76
2023/08/19 12:26:55;;;;;;;7.28;5.82;;;36.80;54.00;;;;;;5059396;28;20024;-76
2023/08/19 12:29:20;;;;;;;6.13;5.63;;;37.50;52.60;;;;;;5053252;28;20374;-76
2023/08/19 12:31:46;;;;;;;6.88;6.28;;;38.00;52.20;;;;;;5053503;28;20037;-77
2023/08/19 12:34:13;;;;;;;6.82;6.32;;;38.40;52.30;;;;;;5052933;28;20032;-77